createdAt,value
2019-03-23T00:00:11.652Z,58.98
2019-03-23T00:05:15.871Z,58.78
2019-03-23T00:10:18.528Z,58.72
2019-03-23T00:15:21.132Z,58.71
2019-03-23T00:20:23.696Z,58.56
2019-03-23T00:25:26.262Z,58.62
2019-03-23T00:30:28.849Z,58.81
2019-03-23T00:35:31.429Z,58.68
2019-03-23T00:40:33.993Z,58.54
2019-03-23T00:45:36.609Z,58.29
2019-03-23T00:50:39.227Z,58.38
2019-03-23T00:55:41.894Z,58.12
2019-03-23T01:00:44.458Z,58.32
2019-03-23T01:05:47.015Z,58.39
2019-03-23T01:10:49.494Z,58.25
2019-03-23T01:15:52.068Z,58.14
2019-03-23T01:20:54.664Z,58.21
2019-03-23T01:25:59.074Z,58.34
2019-03-23T01:31:01.651Z,58.36
2019-03-23T01:36:04.268Z,58.57
2019-03-23T01:41:06.861Z,58.64
2019-03-23T01:46:09.481Z,58.65
2019-03-23T01:51:12.149Z,58.75
2019-03-23T01:56:14.900Z,58.81
2019-03-23T02:01:17.550Z,58.87
2019-03-23T02:06:20.175Z,59.02
2019-03-23T02:11:22.726Z,58.82
2019-03-23T02:16:25.373Z,58.83
2019-03-23T02:21:28.037Z,58.99
2019-03-23T02:26:30.659Z,59.01
2019-03-23T02:31:33.279Z,59.17
2019-03-23T02:36:35.867Z,59.26
2019-03-23T02:41:38.507Z,59.03
2019-03-23T02:46:41.067Z,59.05
2019-03-23T02:51:43.570Z,58.88
2019-03-23T02:56:46.208Z,59.03
2019-03-23T03:01:49.821Z,58.94
2019-03-23T03:06:52.460Z,59.06
2019-03-23T03:11:54.998Z,59.36
2019-03-23T03:16:57.566Z,59.48
2019-03-23T03:22:00.228Z,59.31
2019-03-23T03:27:02.986Z,59.03
2019-03-23T03:32:05.630Z,59.18
2019-03-23T03:37:09.444Z,59.39
2019-03-23T03:42:12.053Z,59.31
2019-03-23T03:47:14.560Z,59.82
2019-03-23T03:52:17.231Z,60.07
2019-03-23T03:57:19.861Z,60.38
2019-03-23T04:02:22.474Z,59.87
2019-03-23T04:07:25.068Z,59.74
2019-03-23T04:12:27.726Z,59.95
2019-03-23T04:17:32.224Z,60.24
2019-03-23T04:22:36.713Z,60.24
2019-03-23T04:27:39.304Z,60.30
2019-03-23T04:32:41.911Z,60.43
2019-03-23T04:37:44.469Z,60.48
2019-03-23T04:42:47.073Z,60.70
2019-03-23T04:47:51.485Z,60.40
2019-03-23T04:52:55.584Z,60.70
2019-03-23T04:57:58.223Z,60.70
2019-03-23T05:03:00.836Z,60.84
2019-03-23T05:08:03.460Z,61.01
2019-03-23T05:13:06.088Z,61.22
2019-03-23T05:18:08.703Z,61.10
2019-03-23T05:23:11.332Z,60.99
2019-03-23T05:28:13.825Z,60.94
2019-03-23T05:33:16.389Z,60.87
2019-03-23T05:38:18.998Z,60.84
2019-03-23T05:43:21.640Z,60.77
2019-03-23T05:48:28.765Z,60.85
2019-03-23T05:53:32.113Z,60.71
2019-03-23T05:58:34.803Z,60.75
2019-03-23T06:03:37.377Z,60.89
2019-03-23T06:08:40.020Z,60.83
2019-03-23T06:13:42.691Z,60.53
2019-03-23T06:18:45.362Z,60.50
2019-03-23T06:23:47.945Z,60.50
2019-03-23T06:28:50.618Z,60.27
2019-03-23T06:33:53.332Z,59.95
2019-03-23T06:39:05.060Z,57.90
2019-03-23T06:44:00.642Z,55.91
2019-03-23T06:49:04.930Z,55.60
2019-03-23T06:54:07.601Z,55.06
2019-03-23T06:59:10.229Z,54.01
2019-03-23T07:04:12.869Z,53.18
2019-03-23T07:09:16.485Z,52.13
2019-03-23T07:14:21.553Z,50.60
2019-03-23T07:19:24.127Z,49.68
2019-03-23T07:24:26.740Z,48.47
2019-03-23T07:29:29.321Z,47.55
2019-03-23T07:34:31.926Z,47.09
2019-03-23T07:39:34.553Z,46.58
2019-03-23T07:44:37.177Z,49.56
2019-03-23T07:49:39.843Z,45.27
2019-03-23T07:54:42.435Z,43.80
2019-03-23T07:59:45.061Z,42.31
2019-03-23T08:04:47.734Z,40.66
2019-03-23T08:09:50.360Z,39.66
2019-03-23T08:14:52.989Z,38.84
2019-03-23T08:19:55.539Z,39.05
2019-03-23T08:24:58.186Z,38.73
2019-03-23T08:30:00.830Z,39.34
2019-03-23T08:35:03.998Z,38.59
2019-03-23T08:40:07.268Z,37.81
2019-03-23T08:45:09.870Z,38.14
2019-03-23T08:50:12.491Z,38.35
2019-03-23T08:55:15.155Z,38.16
2019-03-23T09:00:17.891Z,37.28
2019-03-23T09:05:20.612Z,37.99
2019-03-23T09:10:23.254Z,38.30
2019-03-23T09:15:25.902Z,37.92
2019-03-23T09:20:29.514Z,37.19
2019-03-23T09:25:32.523Z,37.45
2019-03-23T09:30:35.119Z,37.21
2019-03-23T09:35:39.445Z,36.95
2019-03-23T09:40:42.280Z,36.94
2019-03-23T09:45:44.901Z,36.27
2019-03-23T09:50:48.569Z,36.51
2019-03-23T09:55:51.219Z,36.14
2019-03-23T10:00:53.861Z,36.14
2019-03-23T10:05:56.475Z,36.26
2019-03-23T10:10:59.093Z,36.52
2019-03-23T10:16:01.682Z,36.36
2019-03-23T10:21:04.334Z,36.36
2019-03-23T10:26:07.072Z,37.02
2019-03-23T10:31:09.645Z,36.36
2019-03-23T10:36:12.390Z,35.78
2019-03-23T10:41:15.051Z,35.92
2019-03-23T10:46:17.696Z,35.74
2019-03-23T10:51:20.333Z,35.53
2019-03-23T10:56:23.052Z,35.73
2019-03-23T11:01:25.701Z,35.82
2019-03-23T11:06:28.323Z,35.91
2019-03-23T11:11:30.999Z,35.69
2019-03-23T11:16:33.671Z,35.96
2019-03-23T11:21:37.607Z,36.44
2019-03-23T11:26:40.197Z,35.78
2019-03-23T11:31:42.829Z,36.02
2019-03-23T11:36:45.408Z,35.93
2019-03-23T11:41:47.986Z,36.16
2019-03-23T11:46:50.550Z,35.50
2019-03-23T11:51:53.024Z,35.92
2019-03-23T11:56:55.652Z,35.52
2019-03-23T12:01:58.340Z,34.59
2019-03-23T12:07:00.962Z,33.58
2019-03-23T12:12:03.761Z,33.96
2019-03-23T12:17:06.383Z,34.73
2019-03-23T12:22:09.073Z,34.81
2019-03-23T12:27:11.731Z,36.33
2019-03-23T12:32:14.474Z,36.89
2019-03-23T12:37:17.110Z,36.97
2019-03-23T12:42:19.741Z,36.85
2019-03-23T12:47:22.356Z,36.96
2019-03-23T12:52:25.010Z,37.44
2019-03-23T12:57:27.557Z,38.00
2019-03-23T13:02:30.189Z,39.12
2019-03-23T13:07:32.839Z,39.94
2019-03-23T13:12:35.482Z,41.51
2019-03-23T13:17:38.186Z,42.58
2019-03-23T13:22:40.894Z,42.78
2019-03-23T13:27:43.668Z,43.66
2019-03-23T13:32:46.242Z,43.75
2019-03-23T13:37:48.871Z,44.04
2019-03-23T13:42:51.507Z,44.31
2019-03-23T13:47:54.973Z,45.92
2019-03-23T13:52:57.908Z,46.72
2019-03-23T13:58:18.769Z,46.96
2019-03-23T14:03:21.339Z,47.22
2019-03-23T14:08:24.015Z,47.10
2019-03-23T14:13:27.841Z,47.38
2019-03-23T14:18:30.600Z,47.69
2019-03-23T14:23:33.309Z,46.83
2019-03-23T14:28:35.900Z,46.39
2019-03-23T14:33:40.164Z,46.17
2019-03-23T14:38:43.062Z,45.98
2019-03-23T14:43:45.639Z,46.02
2019-03-23T14:48:48.267Z,46.52
2019-03-23T14:53:50.874Z,46.76
2019-03-23T14:58:53.598Z,46.78
2019-03-23T15:03:56.259Z,46.90
2019-03-23T15:08:58.871Z,47.25
2019-03-23T15:14:01.484Z,47.63
2019-03-23T15:19:04.095Z,47.77
2019-03-23T15:24:09.194Z,48.09
2019-03-23T15:29:13.036Z,48.09
2019-03-23T15:34:17.009Z,48.37
2019-03-23T15:39:19.659Z,48.33
2019-03-23T15:44:22.289Z,48.83
2019-03-23T15:49:24.995Z,48.83
2019-03-23T15:54:27.637Z,49.19
2019-03-23T15:59:30.238Z,49.56
2019-03-23T16:04:32.932Z,49.81
2019-03-23T16:09:35.653Z,50.45
2019-03-23T16:14:38.289Z,50.75
2019-03-23T16:19:40.835Z,50.87
2019-03-23T16:24:43.283Z,50.76
2019-03-23T16:29:45.891Z,51.17
2019-03-23T16:34:48.476Z,51.59
2019-03-23T16:39:51.090Z,51.77
2019-03-23T16:44:53.714Z,52.08
2019-03-23T16:49:56.356Z,52.39
2019-03-23T16:54:58.963Z,52.79
2019-03-23T17:00:01.587Z,53.12
2019-03-23T17:05:05.988Z,53.44
2019-03-23T17:10:09.095Z,53.75
2019-03-23T17:15:12.861Z,54.10
2019-03-23T17:20:15.521Z,54.22
2019-03-23T17:25:18.152Z,54.46
2019-03-23T17:30:20.920Z,54.58
2019-03-23T17:35:23.530Z,54.78
2019-03-23T17:40:26.154Z,55.24
2019-03-23T17:45:28.797Z,55.43
2019-03-23T17:50:31.424Z,55.41
2019-03-23T17:55:34.248Z,55.57
2019-03-23T18:00:36.924Z,55.62
2019-03-23T18:05:39.654Z,55.80
2019-03-23T18:10:42.261Z,55.99
2019-03-23T18:15:44.863Z,56.14
2019-03-23T18:20:47.477Z,56.37
2019-03-23T18:25:50.961Z,56.72
2019-03-23T18:30:53.463Z,56.72
2019-03-23T18:35:56.072Z,56.88
2019-03-23T18:40:58.673Z,57.05
2019-03-23T18:46:01.305Z,57.13
2019-03-23T18:51:04.077Z,57.29
2019-03-23T18:56:06.744Z,57.37
2019-03-23T19:01:09.235Z,57.32
2019-03-23T19:06:11.864Z,57.46
2019-03-23T19:11:15.095Z,57.33
2019-03-23T19:16:17.746Z,57.35
2019-03-23T19:21:20.377Z,57.32
2019-03-23T19:26:23.027Z,57.49
2019-03-23T19:31:25.707Z,57.62
2019-03-23T19:36:28.292Z,57.72
2019-03-23T19:41:30.919Z,57.82
2019-03-23T19:46:35.926Z,57.88
2019-03-23T19:51:38.683Z,57.90
2019-03-23T19:56:41.279Z,57.98
2019-03-23T20:01:44.005Z,58.27
2019-03-23T20:06:46.686Z,58.27
2019-03-23T20:11:49.319Z,58.20
2019-03-23T20:16:52.048Z,58.28
2019-03-23T20:21:54.668Z,58.25
2019-03-23T20:26:57.364Z,58.01
2019-03-23T20:32:00.007Z,58.20
2019-03-23T20:37:02.878Z,58.28
2019-03-23T20:42:05.510Z,57.99
2019-03-23T20:47:08.287Z,58.07
2019-03-23T20:52:10.989Z,58.10
2019-03-23T20:57:23.457Z,58.37
2019-03-23T21:02:18.267Z,58.30
2019-03-23T21:07:20.900Z,58.50
2019-03-23T21:12:23.525Z,58.41
2019-03-23T21:17:28.186Z,58.75
2019-03-23T21:22:30.922Z,58.54
2019-03-23T21:27:33.788Z,58.56
2019-03-23T21:32:36.359Z,58.73
2019-03-23T21:37:39.050Z,58.65
2019-03-23T21:42:41.765Z,58.77
2019-03-23T21:47:44.359Z,58.62
2019-03-23T21:52:46.977Z,58.71
2019-03-23T21:57:49.787Z,58.75
2019-03-23T22:02:52.406Z,58.65
2019-03-23T22:07:55.093Z,58.66
2019-03-23T22:12:57.860Z,58.73
2019-03-23T22:18:00.489Z,58.60
2019-03-23T22:23:03.379Z,58.64
2019-03-23T22:28:06.031Z,58.83
2019-03-23T22:33:09.507Z,58.75
2019-03-23T22:38:12.222Z,58.77
2019-03-23T22:43:14.798Z,58.82
2019-03-23T22:48:17.453Z,58.60
2019-03-23T22:53:21.778Z,58.80
2019-03-23T22:58:24.228Z,58.76
2019-03-23T23:03:26.989Z,58.78
2019-03-23T23:08:29.710Z,58.80
2019-03-23T23:13:32.313Z,58.62
2019-03-23T23:18:34.905Z,58.67
2019-03-23T23:23:37.588Z,58.68
2019-03-23T23:28:41.436Z,58.61
2019-03-23T23:33:45.309Z,58.64
2019-03-23T23:38:47.894Z,58.54
2019-03-23T23:43:52.654Z,58.46
2019-03-23T23:48:55.338Z,58.43
2019-03-23T23:54:00.204Z,58.46
2019-03-23T23:59:02.832Z,58.47
